Time;durP1;ratioP1;P1;durP2;ratioP2;P2;SDS_P1;SDS_P2;PMS_P1;PMS_P2;Temp;Humidity;BMP_temperature;BMP_pressure;BME280_temperature;BME280_humidity;BME280_pressure;Samples;Min_cycle;Max_cycle;Signal;HPM_P1;HPM_P2
2023/05/20 00:01:07;;;;;;;4.07;2.80;;;12.90;97.90;;;;;;491129;243;28232;-79
2023/05/20 00:03:09;;;;;;;2.40;2.20;;;12.90;98.00;;;;;;491202;243;28262;-79
2023/05/20 00:05:10;;;;;;;4.43;2.47;;;12.90;98.10;;;;;;491153;243;28241;-80
2023/05/20 00:07:11;;;;;;;4.50;2.70;;;12.90;98.30;;;;;;491184;243;28363;-79
2023/05/20 00:09:12;;;;;;;4.80;2.50;;;12.90;98.40;;;;;;491114;243;28146;-81
2023/05/20 00:11:14;;;;;;;7.63;2.73;;;12.90;98.50;;;;;;491128;243;28264;-81
2023/05/20 00:13:15;;;;;;;2.60;2.40;;;12.90;98.50;;;;;;491216;243;28395;-80
2023/05/20 00:15:16;;;;;;;3.90;2.30;;;12.90;98.50;;;;;;488191;237;28293;-83
2023/05/20 00:17:17;;;;;;;5.27;2.77;;;12.90;98.50;;;;;;472497;246;28202;-84
2023/05/20 00:19:20;;;;;;;4.23;3.27;;;;;;;;;;469415;246;28226;-84
2023/05/20 00:21:21;;;;;;;2.77;2.57;;;12.80;98.90;;;;;;464715;251;26380;-83
2023/05/20 00:23:22;;;;;;;4.20;2.47;;;12.80;98.90;;;;;;464674;251;28380;-84
2023/05/20 00:25:24;;;;;;;2.83;2.53;;;12.80;99.00;;;;;;472549;248;28289;-85
2023/05/20 00:27:25;;;;;;;5.40;3.30;;;12.80;99.10;;;;;;472575;248;28325;-81
2023/05/20 00:29:27;;;;;;;4.20;2.80;;;12.80;99.40;;;;;;472547;248;28235;-84
2023/05/20 00:31:27;;;;;;;5.20;2.70;;;12.70;99.40;;;;;;472524;248;28212;-82
2023/05/20 00:33:30;;;;;;;4.40;2.80;;;;;;;;;;472525;248;28141;-82
2023/05/20 00:35:31;;;;;;;3.77;2.60;;;12.70;99.60;;;;;;474549;237;26400;-79
2023/05/20 00:37:32;;;;;;;6.17;3.07;;;12.70;99.80;;;;;;476629;244;28084;-79
2023/05/20 00:39:35;;;;;;;3.63;2.73;;;;;;;;;;476644;250;28088;-86
2023/05/20 00:41:36;;;;;;;5.47;2.70;;;12.70;99.90;;;;;;476632;246;26893;-81
2023/05/20 00:43:37;;;;;;;4.80;2.60;;;12.70;99.90;;;;;;476663;250;27935;-78
2023/05/20 00:45:38;;;;;;;3.30;2.50;;;12.70;99.90;;;;;;476590;250;28109;-82
2023/05/20 00:47:40;;;;;;;3.10;2.77;;;12.70;99.90;;;;;;476533;250;28009;-81
2023/05/20 00:49:41;;;;;;;7.10;3.07;;;12.70;99.90;;;;;;476605;249;28033;-82
2023/05/20 00:51:42;;;;;;;3.47;3.03;;;12.70;99.90;;;;;;476548;250;27993;-84
2023/05/20 00:53:44;;;;;;;3.83;2.73;;;12.70;99.90;;;;;;476665;250;27991;-81
2023/05/20 00:55:46;;;;;;;4.93;2.80;;;;;;;;;;476539;250;28124;-88
2023/05/20 00:57:47;;;;;;;4.33;2.67;;;12.70;99.90;;;;;;476655;249;26427;-79
2023/05/20 00:59:48;;;;;;;3.33;2.70;;;12.70;99.90;;;;;;476639;250;28052;-80
2023/05/20 01:01:51;;;;;;;3.80;3.37;;;;;;;;;;476650;249;28590;-83
2023/05/20 01:03:52;;;;;;;4.53;2.70;;;12.60;99.90;;;;;;476641;249;26931;-81
2023/05/20 01:05:53;;;;;;;5.37;2.73;;;12.70;99.90;;;;;;476605;250;28579;-78
2023/05/20 01:07:55;;;;;;;3.57;2.57;;;12.60;99.90;;;;;;476654;250;28014;-81
2023/05/20 01:09:56;;;;;;;2.83;2.50;;;12.60;99.90;;;;;;476632;250;28193;-80
2023/05/20 01:11:57;;;;;;;6.77;2.90;;;12.60;99.90;;;;;;476572;250;28022;-81
2023/05/20 01:13:58;;;;;;;5.70;3.07;;;12.60;99.90;;;;;;476592;250;27955;-81
2023/05/20 01:16:00;;;;;;;8.23;2.93;;;12.60;99.90;;;;;;476519;250;28455;-79
2023/05/20 01:18:01;;;;;;;3.03;2.70;;;12.50;99.90;;;;;;476546;250;28094;-83
2023/05/20 01:20:03;;;;;;;7.70;3.57;;;12.50;99.90;;;;;;476600;250;28092;-85
2023/05/20 01:22:03;;;;;;;4.00;2.80;;;12.50;99.90;;;;;;476647;249;28366;-79
2023/05/20 01:24:05;;;;;;;4.17;2.63;;;12.40;99.90;;;;;;476581;250;28132;-82
2023/05/20 01:26:06;;;;;;;4.60;2.70;;;12.40;99.90;;;;;;476514;250;28028;-82
2023/05/20 01:28:09;;;;;;;5.03;2.93;;;;;;;;;;476565;250;28436;-86
2023/05/20 01:30:10;;;;;;;6.10;3.00;;;12.20;99.90;;;;;;476591;249;26462;-79
2023/05/20 01:32:11;;;;;;;5.30;2.60;;;12.20;99.90;;;;;;476576;250;28140;-81
2023/05/20 01:34:13;;;;;;;5.17;2.70;;;;;;;;;;476581;250;27961;-81
2023/05/20 01:36:14;;;;;;;5.07;3.37;;;12.00;99.90;;;;;;476592;243;26753;-80
2023/05/20 01:38:16;;;;;;;6.37;3.00;;;11.90;99.90;;;;;;476668;249;28137;-81
2023/05/20 01:40:17;;;;;;;4.87;3.07;;;12.00;99.90;;;;;;476645;243;28228;-80
2023/05/20 01:42:18;;;;;;;4.47;3.30;;;11.90;99.90;;;;;;476678;250;28436;-78
2023/05/20 01:44:19;;;;;;;3.70;3.27;;;11.90;99.90;;;;;;478829;241;27995;-79
2023/05/20 01:46:21;;;;;;;4.20;2.97;;;11.80;99.90;;;;;;488622;242;28386;-80
2023/05/20 01:48:22;;;;;;;5.63;3.03;;;11.80;99.90;;;;;;482765;236;28121;-82
2023/05/20 01:50:23;;;;;;;5.03;2.80;;;11.70;99.90;;;;;;480359;248;28013;-82
2023/05/20 01:52:24;;;;;;;7.07;2.93;;;11.70;99.90;;;;;;488207;235;28104;-82
2023/05/20 01:54:26;;;;;;;4.70;2.90;;;11.70;99.90;;;;;;490595;243;28193;-82
2023/05/20 01:56:27;;;;;;;9.60;3.37;;;11.70;99.90;;;;;;486931;242;28190;-82
2023/05/20 01:58:28;;;;;;;3.77;2.60;;;11.60;99.90;;;;;;489881;240;28274;-83
2023/05/20 02:00:29;;;;;;;3.33;2.97;;;11.50;99.90;;;;;;484992;239;27981;-82
2023/05/20 02:02:31;;;;;;;5.87;3.30;;;11.50;99.90;;;;;;494948;236;27839;-82
2023/05/20 02:04:32;;;;;;;6.20;3.27;;;11.50;99.90;;;;;;476341;248;27965;-83
2023/05/20 02:06:33;;;;;;;5.10;3.13;;;11.50;99.90;;;;;;489403;235;28150;-80
2023/05/20 02:08:34;;;;;;;7.17;3.00;;;11.50;99.90;;;;;;489898;236;28310;-78
2023/05/20 02:10:36;;;;;;;5.17;3.10;;;11.40;99.90;;;;;;489904;239;28221;-79
2023/05/20 02:12:37;;;;;;;3.40;3.10;;;11.40;99.90;;;;;;480195;242;27932;-80
2023/05/20 02:14:38;;;;;;;4.60;3.13;;;11.30;99.90;;;;;;489861;240;28248;-81
2023/05/20 02:16:40;;;;;;;5.47;3.80;;;11.30;99.90;;;;;;480197;242;28285;-80
2023/05/20 02:18:41;;;;;;;4.33;2.87;;;11.20;99.90;;;;;;489844;240;28173;-79
2023/05/20 02:20:43;;;;;;;3.83;3.07;;;;;;;;;;485761;239;28126;-80
2023/05/20 02:22:44;;;;;;;3.20;2.90;;;11.10;99.90;;;;;;488739;244;27193;-79
2023/05/20 02:24:46;;;;;;;5.27;3.27;;;11.10;99.90;;;;;;482383;235;27937;-81
2023/05/20 02:26:49;;;;;;;8.60;3.23;;;11.10;99.90;;;;;;501380;238;28268;-79
2023/05/20 02:28:49;;;;;;;3.73;3.10;;;11.10;99.90;;;;;;501188;238;28127;-80
2023/05/20 02:30:52;;;;;;;4.17;3.30;;;11.00;99.90;;;;;;501362;238;28248;-79
2023/05/20 02:32:54;;;;;;;6.47;2.97;;;11.00;99.90;;;;;;501390;238;28028;-81
2023/05/20 02:34:55;;;;;;;6.23;3.47;;;11.00;99.90;;;;;;501339;237;28210;-81
2023/05/20 02:36:56;;;;;;;6.20;4.17;;;10.90;99.90;;;;;;501360;238;28136;-80
2023/05/20 02:39:00;;;;;;;3.47;3.17;;;;;;;;;;501350;238;28062;-81
2023/05/20 02:41:00;;;;;;;3.40;2.77;;;10.90;99.90;;;;;;501331;238;27212;-79
2023/05/20 02:43:01;;;;;;;5.90;3.30;;;10.90;99.90;;;;;;501382;238;28218;-80
2023/05/20 02:45:02;;;;;;;4.70;3.40;;;10.90;99.90;;;;;;501342;238;28118;-81
2023/05/20 02:47:04;;;;;;;3.63;3.10;;;10.90;99.90;;;;;;501378;238;28245;-79
2023/05/20 02:49:05;;;;;;;3.50;3.20;;;10.90;99.90;;;;;;501367;238;28239;-81
2023/05/20 02:51:06;;;;;;;6.00;3.63;;;10.90;99.90;;;;;;501365;238;28010;-80
2023/05/20 02:53:09;;;;;;;3.63;3.07;;;;;;;;;;501310;238;28341;-79
2023/05/20 02:55:10;;;;;;;4.00;3.60;;;10.70;99.90;;;;;;501319;236;27126;-81
2023/05/20 02:57:11;;;;;;;3.80;3.40;;;10.80;99.90;;;;;;501306;238;28009;-81
2023/05/20 02:59:12;;;;;;;5.87;3.13;;;10.70;99.90;;;;;;501329;238;28765;-80
2023/05/20 03:01:13;;;;;;;3.87;3.00;;;10.70;99.90;;;;;;501328;238;28266;-81
2023/05/20 03:03:16;;;;;;;4.33;3.37;;;;;;;;;;501339;238;28219;-80
2023/05/20 03:05:17;;;;;;;5.53;3.90;;;10.60;99.90;;;;;;501337;236;27045;-83
2023/05/20 03:07:20;;;;;;;4.30;3.90;;;10.60;99.90;;;;;;501313;238;27982;-80
2023/05/20 03:09:20;;;;;;;5.67;3.50;;;10.60;99.90;;;;;;501263;238;28162;-82
2023/05/20 03:11:21;;;;;;;6.53;3.90;;;10.50;99.90;;;;;;501340;238;28123;-81
2023/05/20 03:13:22;;;;;;;5.97;4.00;;;10.50;99.90;;;;;;501353;238;28506;-81
2023/05/20 03:15:23;;;;;;;4.73;4.07;;;10.50;99.90;;;;;;501288;238;28031;-82
2023/05/20 03:17:25;;;;;;;6.60;3.97;;;10.50;99.90;;;;;;501322;238;28055;-80
2023/05/20 03:19:26;;;;;;;8.37;3.80;;;10.40;99.90;;;;;;501317;238;28132;-82
2023/05/20 03:21:28;;;;;;;5.10;4.37;;;10.40;99.90;;;;;;501327;237;28129;-85
2023/05/20 03:23:28;;;;;;;6.50;4.10;;;10.40;99.90;;;;;;501256;238;28023;-82
2023/05/20 03:25:30;;;;;;;6.63;4.20;;;10.30;99.90;;;;;;501264;238;28045;-83
2023/05/20 03:27:31;;;;;;;5.30;4.00;;;10.30;99.90;;;;;;501283;238;28069;-81
2023/05/20 03:29:32;;;;;;;7.33;4.13;;;10.30;99.90;;;;;;501241;238;27930;-82
2023/05/20 03:31:33;;;;;;;6.07;3.90;;;10.20;99.90;;;;;;501275;237;27948;-83
2023/05/20 03:33:35;;;;;;;6.00;4.20;;;10.20;99.90;;;;;;501303;238;27993;-81
2023/05/20 03:35:36;;;;;;;6.00;4.37;;;10.20;99.90;;;;;;501269;238;27988;-83
2023/05/20 03:37:37;;;;;;;5.53;3.90;;;10.20;99.90;;;;;;501264;238;27895;-81
2023/05/20 03:39:38;;;;;;;4.93;4.10;;;10.20;99.90;;;;;;501220;238;28013;-81
2023/05/20 03:41:40;;;;;;;5.00;3.73;;;10.10;99.90;;;;;;501265;238;28114;-80
2023/05/20 03:43:41;;;;;;;4.30;3.90;;;10.10;99.90;;;;;;501266;238;27783;-80
2023/05/20 03:45:42;;;;;;;6.10;4.30;;;10.10;99.90;;;;;;501202;238;27998;-81
2023/05/20 03:47:43;;;;;;;4.40;4.00;;;10.10;99.90;;;;;;501272;238;27911;-80
2023/05/20 03:49:45;;;;;;;7.40;3.93;;;10.10;99.90;;;;;;501334;238;28051;-81
2023/05/20 03:51:46;;;;;;;5.30;4.40;;;10.10;99.90;;;;;;501395;238;28004;-81
2023/05/20 03:53:47;;;;;;;4.30;3.90;;;10.00;99.90;;;;;;501359;238;27903;-80
2023/05/20 03:55:48;;;;;;;4.10;3.70;;;10.00;99.90;;;;;;501282;237;27894;-79
2023/05/20 03:57:50;;;;;;;5.67;4.20;;;10.00;99.90;;;;;;501312;238;28098;-80
2023/05/20 03:59:51;;;;;;;4.57;4.17;;;10.00;99.90;;;;;;501300;238;27666;-81
2023/05/20 04:01:52;;;;;;;7.00;4.67;;;10.10;99.90;;;;;;501355;238;27954;-80
2023/05/20 04:03:53;;;;;;;4.80;4.30;;;10.10;99.90;;;;;;501325;238;27910;-81
2023/05/20 04:05:55;;;;;;;4.63;3.70;;;10.10;99.90;;;;;;501333;238;28134;-80
2023/05/20 04:07:56;;;;;;;4.33;3.90;;;10.10;99.90;;;;;;501379;238;28123;-79
2023/05/20 04:09:58;;;;;;;5.13;4.20;;;10.10;99.90;;;;;;501371;238;28100;-81
2023/05/20 04:11:58;;;;;;;6.03;4.50;;;10.20;99.90;;;;;;501329;238;28146;-81
2023/05/20 04:14:00;;;;;;;6.27;4.90;;;10.20;99.90;;;;;;501360;238;27917;-80
2023/05/20 04:16:01;;;;;;;5.87;4.63;;;10.20;99.90;;;;;;501338;238;28010;-80
2023/05/20 04:18:02;;;;;;;6.93;4.40;;;10.20;99.90;;;;;;501377;238;28023;-80
2023/05/20 04:20:06;;;;;;;9.63;5.07;;;10.30;99.90;;;;;;501358;238;28110;-81
2023/05/20 04:22:05;;;;;;;5.33;4.57;;;10.30;99.90;;;;;;501211;238;28257;-82
2023/05/20 04:24:06;;;;;;;7.47;5.00;;;10.30;99.90;;;;;;501367;238;28095;-82
2023/05/20 04:26:07;;;;;;;7.13;4.70;;;10.30;99.90;;;;;;501326;238;28011;-82
2023/05/20 04:28:09;;;;;;;4.53;4.10;;;10.30;99.90;;;;;;501351;238;28136;-82
2023/05/20 04:30:10;;;;;;;5.47;4.33;;;10.30;99.90;;;;;;501364;238;27812;-79
2023/05/20 04:32:11;;;;;;;5.87;4.53;;;10.40;99.90;;;;;;501370;238;28042;-82
2023/05/20 04:34:12;;;;;;;5.47;4.13;;;10.40;99.90;;;;;;501370;238;28029;-80
2023/05/20 04:36:14;;;;;;;6.10;4.60;;;10.40;99.90;;;;;;501388;238;28033;-81
2023/05/20 04:38:15;;;;;;;7.20;4.40;;;10.40;99.90;;;;;;501336;238;28031;-81
2023/05/20 04:40:16;;;;;;;5.50;3.80;;;10.40;99.90;;;;;;501355;238;28235;-80
2023/05/20 04:42:18;;;;;;;6.03;4.90;;;10.40;99.90;;;;;;501361;238;28262;-82
2023/05/20 04:44:19;;;;;;;6.83;4.63;;;10.50;99.90;;;;;;501297;236;28237;-79
2023/05/20 04:46:20;;;;;;;6.13;5.00;;;10.50;99.90;;;;;;501308;238;28021;-82
2023/05/20 04:48:21;;;;;;;4.93;4.40;;;10.50;99.90;;;;;;501432;238;28180;-80
2023/05/20 04:50:22;;;;;;;4.63;4.20;;;10.50;99.90;;;;;;501419;238;28101;-80
2023/05/20 04:52:24;;;;;;;6.53;4.33;;;10.50;99.90;;;;;;501410;238;28105;-80
2023/05/20 04:54:25;;;;;;;5.80;4.50;;;10.60;99.90;;;;;;501375;238;28094;-80
2023/05/20 04:56:26;;;;;;;7.37;4.63;;;10.60;99.90;;;;;;501371;237;28101;-81
2023/05/20 04:58:28;;;;;;;6.83;4.53;;;10.70;99.90;;;;;;501394;238;28167;-82
2023/05/20 05:00:29;;;;;;;4.27;3.87;;;10.70;99.90;;;;;;501365;238;28068;-81
2023/05/20 05:02:31;;;;;;;5.63;4.27;;;;;;;;;;501390;238;28113;-81
2023/05/20 05:04:32;;;;;;;6.03;4.40;;;10.80;99.90;;;;;;501379;237;27154;-82
2023/05/20 05:08:38;;;;;;;3.87;3.57;;;11.00;99.90;;;;;;486772;241;28098;-83
2023/05/20 05:10:39;;;;;;;6.10;4.57;;;11.00;99.90;;;;;;477832;247;28207;-82
2023/05/20 05:12:41;;;;;;;6.00;4.23;;;11.10;99.90;;;;;;477845;248;28278;-82
2023/05/20 05:14:42;;;;;;;5.03;4.20;;;11.10;99.90;;;;;;477845;248;28470;-82
2023/05/20 05:16:43;;;;;;;6.90;4.77;;;11.20;99.90;;;;;;477856;248;28479;-82
2023/05/20 05:18:44;;;;;;;4.90;4.40;;;11.20;99.90;;;;;;477833;246;28462;-83
2023/05/20 05:20:46;;;;;;;5.60;4.60;;;11.30;99.90;;;;;;477821;247;28021;-83
2023/05/20 05:22:49;;;;;;;9.77;4.60;;;11.30;99.90;;;;;;477849;248;28006;-83
2023/05/20 05:24:48;;;;;;;5.03;4.53;;;11.30;99.90;;;;;;477761;248;28046;-83
2023/05/20 05:26:51;;;;;;;6.60;4.23;;;;;;;;;;477809;248;27991;-83
2023/05/20 05:28:52;;;;;;;4.60;4.20;;;11.40;99.90;;;;;;477887;246;27268;-84
2023/05/20 05:30:53;;;;;;;6.43;4.30;;;11.50;99.90;;;;;;477856;245;28054;-83
2023/05/20 05:32:54;;;;;;;5.47;4.20;;;11.50;99.90;;;;;;477855;248;28389;-83
2023/05/20 05:34:55;;;;;;;6.50;4.67;;;11.60;99.90;;;;;;477855;248;28135;-83
2023/05/20 05:36:57;;;;;;;5.60;4.47;;;11.60;99.90;;;;;;477868;248;28386;-82
2023/05/20 05:38:58;;;;;;;7.23;4.50;;;11.60;99.90;;;;;;477830;246;28243;-84
2023/05/20 05:41:00;;;;;;;10.03;4.70;;;11.60;99.90;;;;;;477868;248;28325;-84
2023/05/20 05:43:00;;;;;;;7.40;4.30;;;11.70;99.90;;;;;;477843;248;27978;-84
2023/05/20 05:45:02;;;;;;;5.83;4.47;;;11.80;99.90;;;;;;477836;248;28263;-84
2023/05/20 05:47:04;;;;;;;4.73;4.27;;;11.90;99.90;;;;;;477883;248;28712;-84
2023/05/20 05:49:04;;;;;;;6.23;4.80;;;11.80;99.90;;;;;;477789;246;28805;-84
2023/05/20 05:51:05;;;;;;;4.50;4.10;;;11.70;99.90;;;;;;475599;245;28351;-81
2023/05/20 05:53:08;;;;;;;5.20;4.70;;;;;;;;;;466186;256;28696;-87
2023/05/20 05:55:09;;;;;;;11.80;4.87;;;11.70;99.90;;;;;;476824;246;26935;-80
2023/05/20 05:57:10;;;;;;;5.20;4.67;;;11.80;99.90;;;;;;468062;253;28557;-79
2023/05/20 05:59:12;;;;;;;5.60;4.37;;;11.90;99.90;;;;;;476871;250;28447;-81
2023/05/20 06:01:13;;;;;;;5.40;4.90;;;11.90;99.90;;;;;;468070;253;28233;-79
2023/05/20 06:03:15;;;;;;;6.20;4.63;;;;;;;;;;476904;246;28457;-85
2023/05/20 06:05:17;;;;;;;5.10;4.30;;;11.90;99.90;;;;;;468041;255;27515;-82
2023/05/20 06:07:18;;;;;;;5.83;5.23;;;12.00;99.90;;;;;;476803;250;28901;-81
2023/05/20 06:09:19;;;;;;;12.13;5.07;;;12.00;99.90;;;;;;463942;253;28370;-81
2023/05/20 06:11:21;;;;;;;6.73;5.40;;;12.00;99.90;;;;;;476831;250;28090;-81
2023/05/20 06:13:22;;;;;;;7.00;5.03;;;12.10;99.90;;;;;;467993;253;28349;-83
2023/05/20 06:15:23;;;;;;;6.33;4.90;;;12.20;99.90;;;;;;476784;250;28360;-83
2023/05/20 06:17:25;;;;;;;5.93;4.43;;;;;;;;;;467955;253;28154;-84
2023/05/20 06:19:28;;;;;;;9.90;4.73;;;;;;;;;;476741;250;27116;-85
2023/05/20 06:21:30;;;;;;;7.70;5.07;;;12.30;99.90;;;;;;476779;250;26962;-82
2023/05/20 06:23:30;;;;;;;8.87;5.10;;;12.40;99.90;;;;;;468024;253;28257;-81
2023/05/20 06:25:31;;;;;;;6.00;5.20;;;12.40;99.90;;;;;;476769;250;28444;-83
2023/05/20 06:27:33;;;;;;;6.80;5.23;;;12.40;99.90;;;;;;468041;253;28242;-80
2023/05/20 06:29:34;;;;;;;6.90;4.87;;;12.40;99.90;;;;;;476847;250;28872;-80
2023/05/20 06:31:35;;;;;;;9.60;4.87;;;12.60;99.90;;;;;;464014;253;28661;-82
2023/05/20 06:33:36;;;;;;;5.27;4.60;;;12.70;99.90;;;;;;476839;246;28936;-82
2023/05/20 06:35:38;;;;;;;8.27;5.77;;;12.70;99.90;;;;;;467940;253;28231;-81
2023/05/20 06:37:39;;;;;;;9.93;4.80;;;12.80;99.90;;;;;;476804;250;28224;-82
2023/05/20 06:39:40;;;;;;;6.57;5.20;;;12.80;99.90;;;;;;467955;253;28124;-82
2023/05/20 06:41:42;;;;;;;5.57;5.07;;;12.90;99.90;;;;;;476675;250;28316;-83
2023/05/20 06:43:43;;;;;;;5.60;5.10;;;12.90;99.90;;;;;;463824;253;28176;-81
2023/05/20 06:45:44;;;;;;;5.47;4.93;;;12.80;99.90;;;;;;476538;250;28349;-83
2023/05/20 06:47:46;;;;;;;8.83;5.20;;;12.70;99.90;;;;;;468015;253;28326;-83
2023/05/20 06:49:46;;;;;;;5.33;4.67;;;12.70;99.90;;;;;;476622;250;28253;-85
2023/05/20 06:51:48;;;;;;;5.77;4.80;;;12.90;99.90;;;;;;471387;249;28297;-84
2023/05/20 06:53:49;;;;;;;9.93;4.73;;;13.00;99.90;;;;;;481171;248;29070;-83
2023/05/20 06:55:51;;;;;;;4.80;4.30;;;13.20;99.90;;;;;;481061;248;29295;-85
2023/05/20 06:57:51;;;;;;;6.80;5.40;;;13.30;99.90;;;;;;481037;248;29389;-85
2023/05/20 06:59:53;;;;;;;8.23;5.33;;;13.20;99.90;;;;;;481041;248;28831;-85
2023/05/20 07:01:54;;;;;;;9.00;5.73;;;13.10;99.90;;;;;;481142;247;28413;-84
2023/05/20 07:03:55;;;;;;;9.70;4.57;;;13.10;99.90;;;;;;481086;248;28527;-84
2023/05/20 07:05:56;;;;;;;9.07;5.03;;;13.30;99.90;;;;;;480961;248;28896;-84
2023/05/20 07:07:58;;;;;;;9.43;4.47;;;13.30;99.90;;;;;;480954;248;28434;-84
2023/05/20 07:09:59;;;;;;;4.70;4.30;;;13.30;99.90;;;;;;480983;248;28321;-83
2023/05/20 07:12:00;;;;;;;5.13;4.63;;;13.30;99.90;;;;;;480947;248;28835;-86
2023/05/20 07:14:02;;;;;;;5.87;4.90;;;13.30;99.90;;;;;;480883;248;28317;-85
2023/05/20 07:16:03;;;;;;;4.50;4.00;;;13.50;99.90;;;;;;480793;248;28422;-86
2023/05/20 07:18:04;;;;;;;6.17;4.83;;;13.80;99.90;;;;;;480704;248;28426;-85
2023/05/20 07:20:05;;;;;;;8.33;4.80;;;13.80;99.90;;;;;;480636;247;28882;-81
2023/05/20 07:22:07;;;;;;;5.07;4.57;;;13.50;99.90;;;;;;480699;248;28898;-85
2023/05/20 07:24:08;;;;;;;5.13;4.70;;;13.50;99.90;;;;;;480692;248;29256;-83
2023/05/20 07:26:09;;;;;;;5.20;4.60;;;13.50;99.90;;;;;;480698;248;28724;-85
2023/05/20 07:28:10;;;;;;;7.07;4.70;;;13.70;99.90;;;;;;480569;248;28782;-86
2023/05/20 07:30:12;;;;;;;5.90;5.00;;;14.00;99.90;;;;;;480576;248;28814;-83
2023/05/20 07:32:13;;;;;;;6.87;4.80;;;13.90;99.90;;;;;;480616;247;28531;-85
2023/05/20 07:34:14;;;;;;;5.73;5.13;;;13.70;99.90;;;;;;480645;248;28726;-85
2023/05/20 07:36:15;;;;;;;6.67;5.00;;;13.70;99.90;;;;;;480578;247;28781;-85
2023/05/20 07:38:17;;;;;;;11.00;5.30;;;13.80;99.90;;;;;;480605;248;28735;-85
2023/05/20 07:40:18;;;;;;;5.87;4.83;;;13.70;99.90;;;;;;480589;248;28727;-83
2023/05/20 07:42:19;;;;;;;6.13;5.40;;;13.70;99.90;;;;;;480588;248;28820;-84
2023/05/20 07:44:23;;;;;;;6.00;5.27;;;13.70;99.90;;;;;;480598;248;29178;-81
2023/05/20 07:46:25;;;;;;;6.30;5.20;;;13.70;99.90;;;;;;480601;248;28729;-84
2023/05/20 07:48:26;;;;;;;7.53;4.93;;;13.90;99.90;;;;;;480539;248;28741;-84
2023/05/20 07:50:27;;;;;;;5.87;5.27;;;14.30;99.90;;;;;;480508;247;28722;-84
2023/05/20 07:52:28;;;;;;;5.93;4.83;;;14.10;99.90;;;;;;479868;248;28811;-84
2023/05/20 07:54:30;;;;;;;6.10;5.47;;;14.10;99.90;;;;;;484182;246;29080;-86
2023/05/20 07:56:32;;;;;;;5.87;5.30;;;14.00;99.90;;;;;;472318;250;28915;-84
2023/05/20 07:58:32;;;;;;;7.53;5.70;;;14.00;99.90;;;;;;484253;246;29411;-81
2023/05/20 08:00:33;;;;;;;6.07;5.20;;;13.80;99.90;;;;;;472362;250;29372;-84
2023/05/20 08:02:35;;;;;;;7.70;5.10;;;13.90;99.90;;;;;;484225;246;29361;-84
2023/05/20 08:04:36;;;;;;;6.90;5.90;;;14.10;99.90;;;;;;472321;250;28943;-84
2023/05/20 08:06:38;;;;;;;5.90;5.30;;;14.10;99.90;;;;;;484234;246;28944;-84
2023/05/20 08:08:40;;;;;;;6.60;5.73;;;14.10;99.90;;;;;;472303;252;28906;-83
2023/05/20 08:10:40;;;;;;;7.57;6.20;;;14.10;99.90;;;;;;484200;246;28938;-84
2023/05/20 08:12:41;;;;;;;10.73;6.10;;;14.00;99.90;;;;;;484317;245;28885;-85
2023/05/20 08:14:43;;;;;;;7.60;6.03;;;14.00;99.90;;;;;;472394;250;28934;-86
2023/05/20 08:16:43;;;;;;;10.50;6.33;;;14.00;99.90;;;;;;484283;246;28865;-85
2023/05/20 08:18:45;;;;;;;7.23;6.00;;;14.00;99.90;;;;;;472379;250;28973;-82
2023/05/20 08:20:46;;;;;;;7.10;5.80;;;13.90;99.90;;;;;;484250;246;29328;-84
2023/05/20 08:22:47;;;;;;;6.20;5.60;;;14.00;99.90;;;;;;472368;250;29384;-84
2023/05/20 08:24:48;;;;;;;8.93;6.50;;;14.20;99.90;;;;;;484227;246;29154;-84
2023/05/20 08:26:50;;;;;;;7.10;5.60;;;14.30;99.90;;;;;;472333;250;28890;-85
2023/05/20 08:28:51;;;;;;;6.90;5.77;;;14.20;99.90;;;;;;484232;246;28949;-83
2023/05/20 08:30:52;;;;;;;5.53;4.90;;;14.40;99.90;;;;;;472308;250;28885;-84
2023/05/20 08:32:53;;;;;;;9.67;5.30;;;14.70;99.90;;;;;;484226;246;28871;-84
2023/05/20 08:34:55;;;;;;;7.23;5.87;;;14.70;99.90;;;;;;472255;250;29003;-82
2023/05/20 08:36:56;;;;;;;8.90;5.83;;;14.70;99.90;;;;;;484184;246;28893;-84
2023/05/20 08:38:57;;;;;;;6.27;5.50;;;14.50;99.90;;;;;;472219;250;28926;-84
2023/05/20 08:40:58;;;;;;;6.27;5.67;;;14.40;99.90;;;;;;484186;246;28968;-85
2023/05/20 08:43:00;;;;;;;10.70;6.00;;;14.60;99.90;;;;;;472267;250;28914;-83
2023/05/20 08:45:01;;;;;;;6.37;5.40;;;14.70;99.90;;;;;;484155;246;29357;-82
2023/05/20 08:47:02;;;;;;;6.20;5.60;;;14.90;99.90;;;;;;472270;250;29353;-84
2023/05/20 08:49:03;;;;;;;6.20;5.60;;;14.80;99.90;;;;;;484216;246;29704;-83
2023/05/20 08:51:05;;;;;;;6.30;5.40;;;14.90;99.90;;;;;;472281;250;28976;-83
2023/05/20 08:53:06;;;;;;;6.57;5.90;;;15.10;99.90;;;;;;484212;246;28896;-84
2023/05/20 08:55:08;;;;;;;6.90;6.20;;;14.90;99.90;;;;;;472253;250;28937;-82
2023/05/20 08:57:09;;;;;;;8.17;6.13;;;15.00;99.90;;;;;;484168;246;28951;-84
2023/05/20 08:59:10;;;;;;;7.77;6.30;;;15.00;99.90;;;;;;472282;250;28916;-84
2023/05/20 09:01:11;;;;;;;6.77;5.87;;;15.00;99.90;;;;;;484208;246;28866;-84
2023/05/20 09:03:12;;;;;;;7.67;6.13;;;15.20;99.90;;;;;;484206;245;28947;-86
2023/05/20 09:05:13;;;;;;;7.23;6.10;;;15.50;99.90;;;;;;472230;250;28938;-82
2023/05/20 09:07:15;;;;;;;7.93;5.80;;;15.40;99.90;;;;;;484158;246;28936;-83
2023/05/20 09:09:16;;;;;;;6.60;5.60;;;15.20;99.90;;;;;;472256;250;29402;-83
2023/05/20 09:11:17;;;;;;;7.43;5.50;;;15.20;99.90;;;;;;484132;246;29384;-84
2023/05/20 09:13:18;;;;;;;6.57;5.97;;;15.30;99.90;;;;;;484209;245;29363;-84
2023/05/20 09:15:20;;;;;;;8.43;6.67;;;15.30;99.90;;;;;;472238;250;28927;-84
2023/05/20 09:17:21;;;;;;;9.30;6.30;;;15.30;99.90;;;;;;484166;246;28875;-84
2023/05/20 09:19:22;;;;;;;11.07;6.40;;;15.20;99.90;;;;;;472304;250;28929;-83
2023/05/20 09:21:23;;;;;;;8.10;6.60;;;15.20;99.90;;;;;;484219;246;28868;-83
2023/05/20 09:23:26;;;;;;;7.33;6.47;;;15.10;99.90;;;;;;472273;251;28909;-84
2023/05/20 09:25:26;;;;;;;7.50;6.53;;;15.10;99.90;;;;;;484099;246;28901;-83
2023/05/20 09:27:27;;;;;;;8.53;7.00;;;15.00;99.90;;;;;;472295;250;28905;-86
2023/05/20 09:29:28;;;;;;;11.40;7.40;;;14.90;99.90;;;;;;484271;246;28977;-84
2023/05/20 09:31:30;;;;;;;7.53;6.80;;;14.70;99.90;;;;;;472355;251;29364;-85
2023/05/20 09:33:31;;;;;;;8.00;6.90;;;14.70;99.90;;;;;;483521;246;47818;-83
2023/05/20 09:35:32;;;;;;;6.97;6.27;;;14.70;99.90;;;;;;472333;251;27883;-83
2023/05/20 09:37:33;;;;;;;7.87;6.50;;;14.90;99.90;;;;;;484300;246;28873;-85
2023/05/20 09:39:35;;;;;;;7.40;6.50;;;15.10;99.90;;;;;;472358;250;28986;-83
2023/05/20 09:41:36;;;;;;;7.00;5.90;;;15.10;99.90;;;;;;484287;246;28862;-85
2023/05/20 09:43:37;;;;;;;7.23;6.53;;;15.10;99.90;;;;;;472371;250;28971;-84
2023/05/20 09:45:38;;;;;;;7.07;6.37;;;15.00;99.90;;;;;;484236;246;28874;-82
2023/05/20 09:47:40;;;;;;;8.63;6.53;;;15.10;99.90;;;;;;472402;250;28883;-85
2023/05/20 09:49:41;;;;;;;9.83;6.60;;;15.00;99.90;;;;;;484254;246;28935;-85
2023/05/20 09:51:42;;;;;;;7.10;6.10;;;15.00;99.90;;;;;;472347;250;28922;-84
2023/05/20 09:53:43;;;;;;;6.93;6.10;;;15.10;99.90;;;;;;484245;246;28860;-83
2023/05/20 09:55:45;;;;;;;10.60;6.77;;;15.30;99.90;;;;;;472333;250;29358;-83
2023/05/20 09:57:46;;;;;;;7.43;6.70;;;15.40;99.90;;;;;;484251;246;29342;-85
2023/05/20 09:59:47;;;;;;;6.67;6.00;;;15.40;99.90;;;;;;472346;251;29375;-85
2023/05/20 10:01:48;;;;;;;8.70;6.07;;;15.50;99.90;;;;;;484275;246;28969;-83
2023/05/20 10:03:50;;;;;;;9.10;5.60;;;15.50;99.90;;;;;;472345;251;28940;-85
2023/05/20 10:05:51;;;;;;;8.10;6.03;;;15.60;99.90;;;;;;484272;246;28878;-84
2023/05/20 10:07:52;;;;;;;7.33;6.30;;;15.70;99.90;;;;;;472334;250;28904;-86
2023/05/20 10:09:54;;;;;;;24.90;6.20;;;16.00;99.90;;;;;;484268;246;28876;-85
2023/05/20 10:11:55;;;;;;;7.30;6.00;;;16.50;99.90;;;;;;472330;250;28921;-82
2023/05/20 10:13:56;;;;;;;9.70;6.47;;;16.50;99.90;;;;;;484196;246;28959;-84
2023/05/20 10:15:57;;;;;;;9.20;6.50;;;16.60;99.90;;;;;;472261;250;28994;-83
2023/05/20 10:18:00;;;;;;;7.20;6.10;;;16.50;99.90;;;;;;484231;246;28894;-85
2023/05/20 10:20:00;;;;;;;7.43;5.93;;;16.60;99.90;;;;;;472240;251;29415;-84
2023/05/20 10:22:01;;;;;;;10.83;6.47;;;16.70;99.90;;;;;;484190;246;29326;-82
2023/05/20 10:24:02;;;;;;;8.70;6.13;;;16.90;99.90;;;;;;472271;250;28915;-83
2023/05/20 10:26:03;;;;;;;7.33;5.53;;;17.00;99.90;;;;;;484157;246;28846;-83
2023/05/20 10:28:06;;;;;;;9.07;6.30;;;17.10;99.90;;;;;;472252;250;28918;-84
2023/05/20 10:30:06;;;;;;;8.97;6.17;;;17.60;99.90;;;;;;484118;246;28984;-84
2023/05/20 10:32:07;;;;;;;7.90;6.47;;;17.50;99.90;;;;;;484194;245;28893;-83
2023/05/20 10:34:08;;;;;;;6.50;5.90;;;17.40;99.90;;;;;;472267;250;29029;-84
2023/05/20 10:36:10;;;;;;;9.53;6.77;;;17.30;99.90;;;;;;484144;246;28777;-83
2023/05/20 10:38:11;;;;;;;9.33;6.80;;;17.40;99.90;;;;;;472281;250;28985;-83